sensor_id;sensor_type;location;lat;lon;timestamp;pressure;altitude;pressure_sealevel;temperature;humidity
50226;BME280;36113;50.742;6.432;2023-05-22T00:02:01;112741.81;;;-145.50;96.74
50226;BME280;36113;50.742;6.432;2023-05-22T00:04:27;112741.81;;;-145.50;97.03
50226;BME280;36113;50.742;6.432;2023-05-22T00:06:54;112741.81;;;-145.50;96.97
50226;BME280;36113;50.742;6.432;2023-05-22T00:09:20;112741.81;;;-145.50;97.12
50226;BME280;36113;50.742;6.432;2023-05-22T00:11:45;112741.81;;;-145.50;97.22
50226;BME280;36113;50.742;6.432;2023-05-22T00:14:11;112741.81;;;-145.50;97.07
50226;BME280;36113;50.742;6.432;2023-05-22T00:16:38;112741.81;;;-145.50;97.27
50226;BME280;36113;50.742;6.432;2023-05-22T00:19:04;112741.81;;;-145.50;97.57
50226;BME280;36113;50.742;6.432;2023-05-22T00:21:32;112741.81;;;-145.50;97.57
50226;BME280;36113;50.742;6.432;2023-05-22T00:24:00;112741.81;;;-145.50;97.69
50226;BME280;36113;50.742;6.432;2023-05-22T00:26:25;112741.81;;;-145.50;98.11
50226;BME280;36113;50.742;6.432;2023-05-22T00:28:50;112741.81;;;-145.50;98.17
50226;BME280;36113;50.742;6.432;2023-05-22T00:31:16;112741.81;;;-145.50;98.28
50226;BME280;36113;50.742;6.432;2023-05-22T00:33:41;112741.81;;;-145.50;98.27
50226;BME280;36113;50.742;6.432;2023-05-22T00:36:07;112741.81;;;-145.50;98.35
50226;BME280;36113;50.742;6.432;2023-05-22T00:38:34;112741.81;;;-145.50;98.34
50226;BME280;36113;50.742;6.432;2023-05-22T00:41:03;112741.81;;;-145.50;98.26
50226;BME280;36113;50.742;6.432;2023-05-22T00:43:28;112741.81;;;-145.50;98.35
50226;BME280;36113;50.742;6.432;2023-05-22T00:45:54;112741.81;;;-145.50;98.69
50226;BME280;36113;50.742;6.432;2023-05-22T00:48:20;112741.81;;;-145.50;98.60
50226;BME280;36113;50.742;6.432;2023-05-22T00:50:47;112741.81;;;-145.50;98.75
50226;BME280;36113;50.742;6.432;2023-05-22T00:53:13;112741.81;;;-145.50;98.62
50226;BME280;36113;50.742;6.432;2023-05-22T00:55:39;112741.81;;;-145.50;98.84
50226;BME280;36113;50.742;6.432;2023-05-22T00:58:05;112741.81;;;-145.50;99.56
50226;BME280;36113;50.742;6.432;2023-05-22T01:00:36;112741.81;;;-145.50;100.00
50226;BME280;36113;50.742;6.432;2023-05-22T01:03:03;112741.81;;;-145.50;100.00
50226;BME280;36113;50.742;6.432;2023-05-22T01:05:29;112741.81;;;-145.50;100.00
50226;BME280;36113;50.742;6.432;2023-05-22T01:07:55;112741.81;;;-145.50;100.00
50226;BME280;36113;50.742;6.432;2023-05-22T01:10:21;112741.81;;;-145.50;100.00
50226;BME280;36113;50.742;6.432;2023-05-22T01:12:55;112741.81;;;-145.50;100.00
50226;BME280;36113;50.742;6.432;2023-05-22T01:20:51;112741.81;;;-145.50;100.00
50226;BME280;36113;50.742;6.432;2023-05-22T01:29:15;112741.81;;;-145.50;100.00
50226;BME280;36113;50.742;6.432;2023-05-22T01:31:51;112741.81;;;-145.50;100.00
50226;BME280;36113;50.742;6.432;2023-05-22T01:34:20;112741.81;;;-145.50;100.00
50226;BME280;36113;50.742;6.432;2023-05-22T01:36:47;112741.81;;;-145.50;100.00
50226;BME280;36113;50.742;6.432;2023-05-22T01:39:15;112741.81;;;-145.50;100.00
50226;BME280;36113;50.742;6.432;2023-05-22T01:41:41;112741.81;;;-145.50;100.00
50226;BME280;36113;50.742;6.432;2023-05-22T01:44:06;112741.81;;;-145.50;100.00
50226;BME280;36113;50.742;6.432;2023-05-22T01:46:32;112741.81;;;-145.50;100.00
50226;BME280;36113;50.742;6.432;2023-05-22T01:48:58;112741.81;;;-145.50;100.00
50226;BME280;36113;50.742;6.432;2023-05-22T01:51:38;112741.81;;;-145.50;100.00
50226;BME280;36113;50.742;6.432;2023-05-22T01:57:26;112741.81;;;-145.50;100.00
50226;BME280;36113;50.742;6.432;2023-05-22T01:59:58;112741.81;;;-145.50;100.00
50226;BME280;36113;50.742;6.432;2023-05-22T02:02:31;112741.81;;;-145.50;100.00
50226;BME280;36113;50.742;6.432;2023-05-22T02:04:59;112741.81;;;-145.50;100.00
50226;BME280;36113;50.742;6.432;2023-05-22T02:07:25;112741.81;;;-145.50;100.00
50226;BME280;36113;50.742;6.432;2023-05-22T02:09:53;112741.81;;;-145.50;100.00
50226;BME280;36113;50.742;6.432;2023-05-22T02:12:20;112741.81;;;-145.50;100.00
50226;BME280;36113;50.742;6.432;2023-05-22T02:14:46;112741.81;;;-145.50;100.00
50226;BME280;36113;50.742;6.432;2023-05-22T02:17:12;112741.81;;;-145.50;100.00
50226;BME280;36113;50.742;6.432;2023-05-22T02:19:37;112741.81;;;-145.50;100.00
50226;BME280;36113;50.742;6.432;2023-05-22T02:22:02;112741.81;;;-145.50;100.00
50226;BME280;36113;50.742;6.432;2023-05-22T02:24:31;112741.81;;;-145.50;100.00
50226;BME280;36113;50.742;6.432;2023-05-22T02:26:56;112741.81;;;-145.50;100.00
50226;BME280;36113;50.742;6.432;2023-05-22T02:29:22;112741.81;;;-145.50;100.00
50226;BME280;36113;50.742;6.432;2023-05-22T02:31:52;112741.81;;;-145.50;100.00
50226;BME280;36113;50.742;6.432;2023-05-22T02:34:17;112741.81;;;-145.50;100.00
50226;BME280;36113;50.742;6.432;2023-05-22T02:36:43;112741.81;;;-145.50;100.00
50226;BME280;36113;50.742;6.432;2023-05-22T02:39:08;112741.81;;;-145.50;100.00
50226;BME280;36113;50.742;6.432;2023-05-22T02:41:33;112741.81;;;-145.50;100.00
50226;BME280;36113;50.742;6.432;2023-05-22T02:43:59;112741.81;;;-145.50;100.00
50226;BME280;36113;50.742;6.432;2023-05-22T02:46:24;112741.81;;;-145.50;100.00
50226;BME280;36113;50.742;6.432;2023-05-22T02:48:49;112741.81;;;-145.50;100.00
50226;BME280;36113;50.742;6.432;2023-05-22T02:51:15;112741.81;;;-145.50;100.00
50226;BME280;36113;50.742;6.432;2023-05-22T02:53:40;112741.81;;;-145.50;100.00
50226;BME280;36113;50.742;6.432;2023-05-22T02:56:07;112741.81;;;-145.50;100.00
50226;BME280;36113;50.742;6.432;2023-05-22T02:58:32;112741.81;;;-145.50;100.00
50226;BME280;36113;50.742;6.432;2023-05-22T03:00:57;112741.81;;;-145.50;100.00
50226;BME280;36113;50.742;6.432;2023-05-22T03:03:24;112741.81;;;-145.50;100.00
50226;BME280;36113;50.742;6.432;2023-05-22T03:05:49;112741.81;;;-145.50;100.00
50226;BME280;36113;50.742;6.432;2023-05-22T03:08:17;112741.81;;;-145.50;100.00
50226;BME280;36113;50.742;6.432;2023-05-22T03:10:43;112741.81;;;-145.50;100.00
50226;BME280;36113;50.742;6.432;2023-05-22T03:13:08;112741.81;;;-145.50;100.00
50226;BME280;36113;50.742;6.432;2023-05-22T03:15:33;112741.81;;;-145.50;100.00
50226;BME280;36113;50.742;6.432;2023-05-22T03:17:59;112741.81;;;-145.50;100.00
50226;BME280;36113;50.742;6.432;2023-05-22T03:20:24;112741.81;;;-145.50;100.00
50226;BME280;36113;50.742;6.432;2023-05-22T03:22:49;112741.81;;;-145.50;100.00
50226;BME280;36113;50.742;6.432;2023-05-22T03:25:15;112741.81;;;-145.50;100.00
50226;BME280;36113;50.742;6.432;2023-05-22T03:27:40;112741.81;;;-145.50;100.00
50226;BME280;36113;50.742;6.432;2023-05-22T03:30:06;112741.81;;;-145.50;100.00
50226;BME280;36113;50.742;6.432;2023-05-22T03:32:32;112741.81;;;-145.50;100.00
50226;BME280;36113;50.742;6.432;2023-05-22T03:35:01;112741.81;;;-145.50;100.00
50226;BME280;36113;50.742;6.432;2023-05-22T03:37:26;112741.81;;;-145.50;100.00
50226;BME280;36113;50.742;6.432;2023-05-22T03:39:52;112741.81;;;-145.50;100.00
50226;BME280;36113;50.742;6.432;2023-05-22T03:42:17;112741.81;;;-145.50;100.00
50226;BME280;36113;50.742;6.432;2023-05-22T03:44:42;112741.81;;;-145.50;100.00
50226;BME280;36113;50.742;6.432;2023-05-22T03:47:08;112741.81;;;-145.50;100.00
50226;BME280;36113;50.742;6.432;2023-05-22T03:49:33;112741.81;;;-145.50;100.00
50226;BME280;36113;50.742;6.432;2023-05-22T03:51:58;112741.81;;;-145.50;100.00
50226;BME280;36113;50.742;6.432;2023-05-22T03:54:23;112741.81;;;-145.50;100.00
50226;BME280;36113;50.742;6.432;2023-05-22T03:56:50;112741.81;;;-145.50;100.00
50226;BME280;36113;50.742;6.432;2023-05-22T03:59:15;112741.81;;;-145.50;100.00
50226;BME280;36113;50.742;6.432;2023-05-22T04:01:41;112741.81;;;-145.50;100.00
50226;BME280;36113;50.742;6.432;2023-05-22T04:04:06;112741.81;;;-145.50;100.00
50226;BME280;36113;50.742;6.432;2023-05-22T04:06:33;112741.81;;;-145.50;100.00
50226;BME280;36113;50.742;6.432;2023-05-22T04:09:10;112741.81;;;-145.50;100.00
50226;BME280;36113;50.742;6.432;2023-05-22T04:11:36;112741.81;;;-145.50;100.00
50226;BME280;36113;50.742;6.432;2023-05-22T04:14:04;112741.81;;;-145.50;100.00
50226;BME280;36113;50.742;6.432;2023-05-22T04:16:29;112741.81;;;-145.50;100.00
50226;BME280;36113;50.742;6.432;2023-05-22T04:18:55;112741.81;;;-145.50;100.00
50226;BME280;36113;50.742;6.432;2023-05-22T04:21:20;112741.81;;;-145.50;100.00
50226;BME280;36113;50.742;6.432;2023-05-22T04:23:47;112741.81;;;-145.50;100.00
50226;BME280;36113;50.742;6.432;2023-05-22T04:26:14;112741.81;;;-145.50;100.00
50226;BME280;36113;50.742;6.432;2023-05-22T04:28:39;112741.81;;;-145.50;100.00
50226;BME280;36113;50.742;6.432;2023-05-22T04:31:05;112741.81;;;-145.50;100.00
50226;BME280;36113;50.742;6.432;2023-05-22T04:33:31;112741.81;;;-145.50;100.00
50226;BME280;36113;50.742;6.432;2023-05-22T04:35:58;112741.81;;;-145.50;100.00
50226;BME280;36113;50.742;6.432;2023-05-22T04:38:24;112741.81;;;-145.50;100.00
50226;BME280;36113;50.742;6.432;2023-05-22T04:40:50;112741.81;;;-145.50;100.00
50226;BME280;36113;50.742;6.432;2023-05-22T04:43:17;112741.81;;;-145.50;100.00
50226;BME280;36113;50.742;6.432;2023-05-22T04:45:42;112741.81;;;-145.50;100.00
50226;BME280;36113;50.742;6.432;2023-05-22T04:48:08;112741.81;;;-145.50;100.00
50226;BME280;36113;50.742;6.432;2023-05-22T04:50:33;112741.81;;;-145.50;100.00
50226;BME280;36113;50.742;6.432;2023-05-22T04:53:00;112741.81;;;-145.50;100.00
50226;BME280;36113;50.742;6.432;2023-05-22T04:55:28;112741.81;;;-145.50;100.00
50226;BME280;36113;50.742;6.432;2023-05-22T04:57:53;112741.81;;;-145.50;100.00
50226;BME280;36113;50.742;6.432;2023-05-22T05:00:20;112741.81;;;-145.50;100.00
50226;BME280;36113;50.742;6.432;2023-05-22T05:02:50;112741.81;;;-145.50;100.00
50226;BME280;36113;50.742;6.432;2023-05-22T05:05:15;112741.81;;;-145.50;100.00
50226;BME280;36113;50.742;6.432;2023-05-22T05:07:41;112741.81;;;-145.50;100.00
50226;BME280;36113;50.742;6.432;2023-05-22T05:10:07;112741.81;;;-145.50;100.00
50226;BME280;36113;50.742;6.432;2023-05-22T05:12:33;112741.81;;;-145.50;100.00
50226;BME280;36113;50.742;6.432;2023-05-22T05:14:59;112741.81;;;-145.50;100.00
50226;BME280;36113;50.742;6.432;2023-05-22T05:17:24;112741.81;;;-145.50;100.00
50226;BME280;36113;50.742;6.432;2023-05-22T05:19:49;112741.81;;;-145.50;100.00
50226;BME280;36113;50.742;6.432;2023-05-22T05:22:15;112741.81;;;-145.50;100.00
50226;BME280;36113;50.742;6.432;2023-05-22T05:24:40;112741.81;;;-145.50;100.00
50226;BME280;36113;50.742;6.432;2023-05-22T05:27:05;112741.81;;;-145.50;100.00
50226;BME280;36113;50.742;6.432;2023-05-22T05:29:31;112741.81;;;-145.50;100.00
50226;BME280;36113;50.742;6.432;2023-05-22T05:31:56;112741.81;;;-145.50;100.00
50226;BME280;36113;50.742;6.432;2023-05-22T05:34:21;112741.81;;;-145.50;100.00
50226;BME280;36113;50.742;6.432;2023-05-22T05:36:47;112741.81;;;-145.50;100.00
50226;BME280;36113;50.742;6.432;2023-05-22T05:39:12;112741.81;;;-145.50;100.00
50226;BME280;36113;50.742;6.432;2023-05-22T05:41:37;112741.81;;;-145.50;100.00
50226;BME280;36113;50.742;6.432;2023-05-22T05:44:03;112741.81;;;-145.50;100.00
50226;BME280;36113;50.742;6.432;2023-05-22T05:46:28;112741.81;;;-145.50;100.00
50226;BME280;36113;50.742;6.432;2023-05-22T05:48:53;112741.81;;;-145.50;100.00
50226;BME280;36113;50.742;6.432;2023-05-22T05:51:19;112741.81;;;-145.50;100.00
50226;BME280;36113;50.742;6.432;2023-05-22T05:53:45;112741.81;;;-145.50;100.00
50226;BME280;36113;50.742;6.432;2023-05-22T05:56:10;112741.81;;;-145.50;100.00
50226;BME280;36113;50.742;6.432;2023-05-22T05:58:36;112741.81;;;-145.50;100.00
50226;BME280;36113;50.742;6.432;2023-05-22T06:01:01;112741.81;;;-145.50;100.00
50226;BME280;36113;50.742;6.432;2023-05-22T06:03:27;112741.81;;;-145.50;100.00
50226;BME280;36113;50.742;6.432;2023-05-22T06:05:52;112741.81;;;-145.50;100.00
50226;BME280;36113;50.742;6.432;2023-05-22T06:08:18;112741.81;;;-145.50;100.00
50226;BME280;36113;50.742;6.432;2023-05-22T06:10:46;112741.81;;;-145.50;99.48
50226;BME280;36113;50.742;6.432;2023-05-22T06:13:12;112741.81;;;-145.50;100.00
50226;BME280;36113;50.742;6.432;2023-05-22T06:15:38;112741.81;;;-145.50;99.17
50226;BME280;36113;50.742;6.432;2023-05-22T06:18:03;112741.81;;;-145.50;99.31
50226;BME280;36113;50.742;6.432;2023-05-22T06:20:29;112741.81;;;-145.50;98.65
50226;BME280;36113;50.742;6.432;2023-05-22T06:22:54;112741.81;;;-145.50;98.59
50226;BME280;36113;50.742;6.432;2023-05-22T06:25:20;112741.81;;;-145.50;98.69
50226;BME280;36113;50.742;6.432;2023-05-22T06:27:47;112741.81;;;-145.50;97.59
50226;BME280;36113;50.742;6.432;2023-05-22T06:30:13;112741.81;;;-145.50;97.46
50226;BME280;36113;50.742;6.432;2023-05-22T06:32:39;112741.81;;;-145.50;97.23
50226;BME280;36113;50.742;6.432;2023-05-22T06:35:05;112741.81;;;-145.50;96.90
50226;BME280;36113;50.742;6.432;2023-05-22T06:37:30;112741.81;;;-145.50;96.20
50226;BME280;36113;50.742;6.432;2023-05-22T06:39:59;112741.81;;;-145.50;95.38
50226;BME280;36113;50.742;6.432;2023-05-22T06:42:25;112741.81;;;-145.50;94.82
50226;BME280;36113;50.742;6.432;2023-05-22T06:44:51;112741.81;;;-145.50;95.24
50226;BME280;36113;50.742;6.432;2023-05-22T06:47:16;112741.81;;;-145.50;94.93
50226;BME280;36113;50.742;6.432;2023-05-22T06:49:41;112741.81;;;-145.50;94.49
50226;BME280;36113;50.742;6.432;2023-05-22T06:52:07;112741.81;;;-145.50;92.96
50226;BME280;36113;50.742;6.432;2023-05-22T06:54:32;112741.81;;;-145.50;92.48
50226;BME280;36113;50.742;6.432;2023-05-22T06:56:57;112741.81;;;-145.50;92.05
50226;BME280;36113;50.742;6.432;2023-05-22T06:59:23;112741.81;;;-145.50;92.35
50226;BME280;36113;50.742;6.432;2023-05-22T07:01:48;112741.81;;;-145.50;91.42
50226;BME280;36113;50.742;6.432;2023-05-22T07:04:14;112741.81;;;-145.50;90.92
50226;BME280;36113;50.742;6.432;2023-05-22T07:06:39;112741.81;;;-145.50;90.75
50226;BME280;36113;50.742;6.432;2023-05-22T07:09:06;112741.81;;;-145.50;89.41
50226;BME280;36113;50.742;6.432;2023-05-22T07:11:31;112741.81;;;-145.50;88.85
50226;BME280;36113;50.742;6.432;2023-05-22T07:13:56;112741.81;;;-145.50;88.96
50226;BME280;36113;50.742;6.432;2023-05-22T07:16:22;112741.81;;;-145.50;88.77
50226;BME280;36113;50.742;6.432;2023-05-22T07:18:47;112741.81;;;-145.50;88.10
50226;BME280;36113;50.742;6.432;2023-05-22T07:21:13;112741.81;;;-145.50;88.08
50226;BME280;36113;50.742;6.432;2023-05-22T07:23:38;112741.81;;;-145.50;88.42
50226;BME280;36113;50.742;6.432;2023-05-22T07:26:03;112741.81;;;-145.50;88.57
50226;BME280;36113;50.742;6.432;2023-05-22T07:28:29;112741.81;;;-145.50;87.10
50226;BME280;36113;50.742;6.432;2023-05-22T07:30:54;112741.81;;;-145.50;87.11
50226;BME280;36113;50.742;6.432;2023-05-22T07:33:20;112741.81;;;-145.50;86.39
50226;BME280;36113;50.742;6.432;2023-05-22T07:35:46;112741.81;;;-145.50;86.13
50226;BME280;36113;50.742;6.432;2023-05-22T07:38:11;112741.81;;;-145.50;85.50
50226;BME280;36113;50.742;6.432;2023-05-22T07:40:36;112741.81;;;-145.50;84.44
50226;BME280;36113;50.742;6.432;2023-05-22T07:43:01;112741.81;;;-145.50;84.19
50226;BME280;36113;50.742;6.432;2023-05-22T07:45:27;112741.81;;;-145.50;83.73
50226;BME280;36113;50.742;6.432;2023-05-22T07:47:52;112741.81;;;-145.50;84.19
50226;BME280;36113;50.742;6.432;2023-05-22T07:50:17;112741.81;;;-145.50;84.05
50226;BME280;36113;50.742;6.432;2023-05-22T07:52:43;112741.81;;;-145.50;83.76
50226;BME280;36113;50.742;6.432;2023-05-22T07:55:08;112741.81;;;-145.50;84.28
50226;BME280;36113;50.742;6.432;2023-05-22T07:57:34;112741.81;;;-145.50;82.83
50226;BME280;36113;50.742;6.432;2023-05-22T08:00:01;112741.81;;;-145.50;83.06
50226;BME280;36113;50.742;6.432;2023-05-22T08:02:33;112741.81;;;-145.50;81.46
50226;BME280;36113;50.742;6.432;2023-05-22T08:04:58;112741.81;;;-145.50;81.43
50226;BME280;36113;50.742;6.432;2023-05-22T08:07:24;112741.81;;;-145.50;80.19
50226;BME280;36113;50.742;6.432;2023-05-22T08:09:49;112741.81;;;-145.50;80.94
50226;BME280;36113;50.742;6.432;2023-05-22T08:12:14;112741.81;;;-145.50;80.94
50226;BME280;36113;50.742;6.432;2023-05-22T08:14:40;112741.81;;;-145.50;80.09
50226;BME280;36113;50.742;6.432;2023-05-22T08:17:05;112741.81;;;-145.50;80.09
50226;BME280;36113;50.742;6.432;2023-05-22T08:19:30;112741.81;;;-145.50;79.00
50226;BME280;36113;50.742;6.432;2023-05-22T08:21:56;112741.81;;;-145.50;78.85
50226;BME280;36113;50.742;6.432;2023-05-22T08:24:25;112741.81;;;-145.50;79.30
50226;BME280;36113;50.742;6.432;2023-05-22T08:26:53;112741.81;;;-145.50;77.89
50226;BME280;36113;50.742;6.432;2023-05-22T08:29:19;112741.81;;;-145.50;77.63
50226;BME280;36113;50.742;6.432;2023-05-22T08:31:44;112741.81;;;-145.50;77.42
50226;BME280;36113;50.742;6.432;2023-05-22T08:34:10;112741.81;;;-145.50;77.84
50226;BME280;36113;50.742;6.432;2023-05-22T08:36:35;112741.81;;;-145.50;75.92
50226;BME280;36113;50.742;6.432;2023-05-22T08:39:00;112741.81;;;-145.50;77.03
50226;BME280;36113;50.742;6.432;2023-05-22T08:41:26;112741.81;;;-145.50;76.56
50226;BME280;36113;50.742;6.432;2023-05-22T08:43:52;112741.81;;;-145.50;75.79
50226;BME280;36113;50.742;6.432;2023-05-22T08:46:18;112741.81;;;-145.50;75.91
50226;BME280;36113;50.742;6.432;2023-05-22T08:48:44;112741.81;;;-145.50;76.85
50226;BME280;36113;50.742;6.432;2023-05-22T08:51:12;112741.81;;;-145.50;77.07
50226;BME280;36113;50.742;6.432;2023-05-22T08:53:39;112741.81;;;-145.50;78.40
50226;BME280;36113;50.742;6.432;2023-05-22T08:56:07;112741.81;;;-145.50;78.13
50226;BME280;36113;50.742;6.432;2023-05-22T08:58:34;112741.81;;;-145.50;77.73
50226;BME280;36113;50.742;6.432;2023-05-22T09:01:00;112741.81;;;-145.50;78.71
50226;BME280;36113;50.742;6.432;2023-05-22T09:03:27;112741.81;;;-145.50;78.03
50226;BME280;36113;50.742;6.432;2023-05-22T09:05:57;112741.81;;;-145.50;78.11
50226;BME280;36113;50.742;6.432;2023-05-22T09:08:22;112741.81;;;-145.50;78.20
50226;BME280;36113;50.742;6.432;2023-05-22T09:10:48;112741.81;;;-145.50;78.99
50226;BME280;36113;50.742;6.432;2023-05-22T09:13:26;112741.81;;;-145.50;79.03
50226;BME280;36113;50.742;6.432;2023-05-22T09:15:57;112741.81;;;-145.50;77.42
50226;BME280;36113;50.742;6.432;2023-05-22T09:18:25;112741.81;;;-145.50;77.22
50226;BME280;36113;50.742;6.432;2023-05-22T09:20:51;112741.81;;;-145.50;77.66
50226;BME280;36113;50.742;6.432;2023-05-22T09:23:16;112741.81;;;-145.50;77.45
50226;BME280;36113;50.742;6.432;2023-05-22T09:25:42;112741.81;;;-145.50;77.80
50226;BME280;36113;50.742;6.432;2023-05-22T09:28:09;112741.81;;;-145.50;78.12
50226;BME280;36113;50.742;6.432;2023-05-22T09:30:35;112741.81;;;-145.50;78.38
50226;BME280;36113;50.742;6.432;2023-05-22T09:33:01;112741.81;;;-145.50;77.53
50226;BME280;36113;50.742;6.432;2023-05-22T09:35:30;112741.81;;;-145.50;77.70
50226;BME280;36113;50.742;6.432;2023-05-22T09:37:55;112741.81;;;-145.50;78.16
50226;BME280;36113;50.742;6.432;2023-05-22T09:40:22;112741.81;;;-145.50;77.47
50226;BME280;36113;50.742;6.432;2023-05-22T09:42:47;112741.81;;;-145.50;76.95
50226;BME280;36113;50.742;6.432;2023-05-22T09:45:12;112741.81;;;-145.50;76.07
50226;BME280;36113;50.742;6.432;2023-05-22T09:47:38;112741.81;;;-145.50;75.98
50226;BME280;36113;50.742;6.432;2023-05-22T09:50:04;112741.81;;;-145.50;77.06
50226;BME280;36113;50.742;6.432;2023-05-22T09:52:35;112741.81;;;-145.50;76.75
50226;BME280;36113;50.742;6.432;2023-05-22T09:55:07;112741.81;;;-145.50;77.15
50226;BME280;36113;50.742;6.432;2023-05-22T09:57:43;112741.81;;;-145.50;76.47
50226;BME280;36113;50.742;6.432;2023-05-22T10:00:13;112741.81;;;-145.50;78.50
50226;BME280;36113;50.742;6.432;2023-05-22T10:02:44;112741.81;;;-145.50;76.63
50226;BME280;36113;50.742;6.432;2023-05-22T10:05:11;112741.81;;;-145.50;75.71
50226;BME280;36113;50.742;6.432;2023-05-22T10:07:45;112741.81;;;-145.50;75.41
50226;BME280;36113;50.742;6.432;2023-05-22T10:10:16;112741.81;;;-145.50;75.54
50226;BME280;36113;50.742;6.432;2023-05-22T10:12:45;112741.81;;;-145.50;73.96
50226;BME280;36113;50.742;6.432;2023-05-22T10:15:12;112741.81;;;-145.50;74.56
50226;BME280;36113;50.742;6.432;2023-05-22T10:17:38;112741.81;;;-145.50;75.45
50226;BME280;36113;50.742;6.432;2023-05-22T10:20:05;112741.81;;;-145.50;75.18
50226;BME280;36113;50.742;6.432;2023-05-22T10:22:36;112741.81;;;-145.50;75.13
50226;BME280;36113;50.742;6.432;2023-05-22T10:25:02;112741.81;;;-145.50;75.36
50226;BME280;36113;50.742;6.432;2023-05-22T10:27:27;112741.81;;;-145.50;75.13
50226;BME280;36113;50.742;6.432;2023-05-22T10:30:07;112741.81;;;-145.50;74.60
50226;BME280;36113;50.742;6.432;2023-05-22T10:37:52;112741.81;;;-145.50;75.57
50226;BME280;36113;50.742;6.432;2023-05-22T10:40:37;112741.81;;;-145.50;75.14
50226;BME280;36113;50.742;6.432;2023-05-22T10:43:03;112741.81;;;-145.50;74.43
50226;BME280;36113;50.742;6.432;2023-05-22T10:45:29;112741.81;;;-145.50;73.91
50226;BME280;36113;50.742;6.432;2023-05-22T10:48:01;112741.81;;;-145.50;74.69
50226;BME280;36113;50.742;6.432;2023-05-22T10:50:27;112741.81;;;-145.50;74.63
50226;BME280;36113;50.742;6.432;2023-05-22T10:55:51;112741.81;;;-145.50;75.51
50226;BME280;36113;50.742;6.432;2023-05-22T10:58:17;112741.81;;;-145.50;75.15
50226;BME280;36113;50.742;6.432;2023-05-22T11:00:49;112741.81;;;-145.50;74.62
50226;BME280;36113;50.742;6.432;2023-05-22T11:06:32;112741.81;;;-145.50;72.46
50226;BME280;36113;50.742;6.432;2023-05-22T11:08:58;112741.81;;;-145.50;72.63
50226;BME280;36113;50.742;6.432;2023-05-22T11:11:25;112741.81;;;-145.50;71.75
50226;BME280;36113;50.742;6.432;2023-05-22T11:13:51;112741.81;;;-145.50;71.15
50226;BME280;36113;50.742;6.432;2023-05-22T11:16:17;112741.81;;;-145.50;71.46
50226;BME280;36113;50.742;6.432;2023-05-22T11:18:43;112741.81;;;-145.50;71.32
50226;BME280;36113;50.742;6.432;2023-05-22T11:21:09;112741.81;;;-145.50;71.17
50226;BME280;36113;50.742;6.432;2023-05-22T11:23:36;112741.81;;;-145.50;71.22
50226;BME280;36113;50.742;6.432;2023-05-22T11:26:20;112741.81;;;-145.50;71.00
50226;BME280;36113;50.742;6.432;2023-05-22T11:28:49;112741.81;;;-145.50;70.32
50226;BME280;36113;50.742;6.432;2023-05-22T11:31:16;112741.81;;;-145.50;69.87
50226;BME280;36113;50.742;6.432;2023-05-22T11:33:42;112741.81;;;-145.50;69.80
50226;BME280;36113;50.742;6.432;2023-05-22T11:36:08;112741.81;;;-145.50;69.99
50226;BME280;36113;50.742;6.432;2023-05-22T11:38:33;112741.81;;;-145.50;69.00
50226;BME280;36113;50.742;6.432;2023-05-22T11:40:59;112741.81;;;-145.50;70.19
50226;BME280;36113;50.742;6.432;2023-05-22T11:43:28;112741.81;;;-145.50;70.87
50226;BME280;36113;50.742;6.432;2023-05-22T11:45:59;112741.81;;;-145.50;69.63
50226;BME280;36113;50.742;6.432;2023-05-22T11:48:25;112741.81;;;-145.50;69.37
50226;BME280;36113;50.742;6.432;2023-05-22T11:50:52;112741.81;;;-145.50;69.73
50226;BME280;36113;50.742;6.432;2023-05-22T11:53:18;112741.81;;;-145.50;69.74
50226;BME280;36113;50.742;6.432;2023-05-22T11:55:43;112741.81;;;-145.50;70.76
50226;BME280;36113;50.742;6.432;2023-05-22T11:58:08;112741.81;;;-145.50;70.86
50226;BME280;36113;50.742;6.432;2023-05-22T12:00:33;112741.81;;;-145.50;70.90
50226;BME280;36113;50.742;6.432;2023-05-22T12:02:59;112741.81;;;-145.50;70.67
50226;BME280;36113;50.742;6.432;2023-05-22T12:05:24;112741.81;;;-145.50;70.17
50226;BME280;36113;50.742;6.432;2023-05-22T12:07:49;112741.81;;;-145.50;71.63
50226;BME280;36113;50.742;6.432;2023-05-22T12:10:15;112741.81;;;-145.50;68.72
50226;BME280;36113;50.742;6.432;2023-05-22T12:12:42;112741.81;;;-145.50;70.56
50226;BME280;36113;50.742;6.432;2023-05-22T12:15:07;112741.81;;;-145.50;70.79
50226;BME280;36113;50.742;6.432;2023-05-22T12:17:35;112741.81;;;-145.50;70.57
50226;BME280;36113;50.742;6.432;2023-05-22T12:20:03;112741.81;;;-145.50;70.58
50226;BME280;36113;50.742;6.432;2023-05-22T12:22:28;112741.81;;;-145.50;70.15
50226;BME280;36113;50.742;6.432;2023-05-22T12:24:54;112741.81;;;-145.50;70.20
50226;BME280;36113;50.742;6.432;2023-05-22T12:27:19;112741.81;;;-145.50;69.96
50226;BME280;36113;50.742;6.432;2023-05-22T12:29:45;112741.81;;;-145.50;70.16
50226;BME280;36113;50.742;6.432;2023-05-22T12:32:11;112741.81;;;-145.50;69.69
50226;BME280;36113;50.742;6.432;2023-05-22T12:34:46;112741.81;;;-145.50;70.09
50226;BME280;36113;50.742;6.432;2023-05-22T12:37:24;112741.81;;;-145.50;71.53
50226;BME280;36113;50.742;6.432;2023-05-22T12:40:01;112741.81;;;-145.50;69.98
50226;BME280;36113;50.742;6.432;2023-05-22T12:42:27;112741.81;;;-145.50;71.04
50226;BME280;36113;50.742;6.432;2023-05-22T12:44:54;112741.81;;;-145.50;71.37
50226;BME280;36113;50.742;6.432;2023-05-22T12:47:21;112741.81;;;-145.50;70.64
50226;BME280;36113;50.742;6.432;2023-05-22T12:49:46;112741.81;;;-145.50;71.25